Time;durP1;ratioP1;P1;durP2;ratioP2;P2;SDS_P1;SDS_P2;PMS_P1;PMS_P2;Temp;Humidity;BMP_temperature;BMP_pressure;BME280_temperature;BME280_humidity;BME280_pressure;Samples;Min_cycle;Max_cycle;Signal;HPM_P1;HPM_P2
2023/11/23 21:46:45;;;;;;;13.20;8.50;;;;;;;-144.73;100.00;87957.54;104672;1297;545176;-53
2023/11/23 21:49:31;;;;;;;15.30;9.10;;;;;;;-144.73;100.00;86608.98;107646;1273;22547;-55
2023/11/23 21:52:18;;;;;;;15.70;8.50;;;;;;;-144.73;100.00;86607.39;107131;1278;22548;-53
2023/11/23 21:55:06;;;;;;;14.30;8.40;;;;;;;-144.73;100.00;86609.77;106455;1272;23097;-55
2023/11/23 21:57:52;;;;;;;13.80;8.00;;;;;;;-144.73;100.00;86620.05;106253;1267;22546;-54
2023/11/23 22:00:39;;;;;;;15.00;7.60;;;;;;;-144.73;100.00;86622.02;106777;1265;159708;-54
2023/11/23 22:03:27;;;;;;;14.20;8.90;;;;;;;-144.73;100.00;86622.42;106980;1268;24252;-53
2023/11/23 22:06:14;;;;;;;13.30;8.50;;;;;;;-144.73;100.00;86620.84;107110;1264;22531;-53
2023/11/23 22:09:01;;;;;;;16.80;9.10;;;;;;;-144.73;100.00;86611.75;107226;1263;22533;-53
2023/11/23 22:11:50;;;;;;;16.40;8.80;;;;;;;-144.73;100.00;86611.35;107383;1266;24352;-54
2023/11/23 22:14:37;;;;;;;15.90;8.70;;;;;;;-144.73;100.00;86628.35;107457;1263;24221;-55
2023/11/23 22:17:25;;;;;;;14.80;8.30;;;;;;;-144.73;100.00;86624.80;107351;1265;22235;-54
2023/11/23 22:20:12;;;;;;;13.80;8.20;;;;;;;-144.73;100.00;86614.91;107074;1269;25366;-55
2023/11/23 22:22:59;;;;;;;14.30;8.70;;;;;;;-144.73;100.00;86616.48;107293;1257;22543;-54
2023/11/23 22:25:46;;;;;;;15.60;8.80;;;;;;;-144.73;100.00;86629.94;110053;1267;22318;-55
2023/11/23 22:28:33;;;;;;;13.00;8.40;;;;;;;-144.73;100.00;86625.59;110107;1272;22305;-54
2023/11/23 22:31:21;;;;;;;13.70;8.10;;;;;;;-144.73;100.00;86621.63;110052;1265;23113;-55
2023/11/23 22:34:08;;;;;;;13.40;7.40;;;;;;;-144.73;100.00;86611.73;110077;1257;22321;-54
2023/11/23 22:36:54;;;;;;;14.90;8.80;;;;;;;-144.73;100.00;86640.23;110089;1268;23162;-55
2023/11/23 22:39:41;;;;;;;13.90;7.90;;;;;;;-144.73;100.00;86623.61;110095;1266;23131;-54
2023/11/23 22:42:30;;;;;;;16.40;8.90;;;;;;;-144.73;100.00;86631.91;110127;1264;22375;-55
2023/11/23 22:45:17;;;;;;;14.80;8.70;;;;;;;-144.73;100.00;86615.30;110089;1264;22325;-55
2023/11/23 22:48:03;;;;;;;14.10;7.90;;;;;;;-144.73;100.00;86619.27;110059;1265;22402;-54
2023/11/23 22:50:50;;;;;;;14.30;8.70;;;;;;;-144.73;100.00;86630.34;110077;1269;22857;-55
2023/11/23 22:53:36;;;;;;;14.20;7.90;;;;;;;-144.73;100.00;86610.56;110029;1266;22453;-56
2023/11/23 22:56:22;;;;;;;14.20;8.40;;;;;;;-144.73;100.00;86616.48;110040;1263;22368;-56
2023/11/23 22:59:09;;;;;;;16.40;8.80;;;;;;;-144.73;100.00;86612.14;110028;1265;22990;-56
2023/11/23 23:01:56;;;;;;;13.70;8.10;;;;;;;-144.73;100.00;86612.92;110063;1265;22144;-57
2023/11/23 23:04:43;;;;;;;13.50;7.90;;;;;;;-144.73;100.00;86617.27;110063;1263;22339;-57
2023/11/23 23:07:29;;;;;;;14.10;8.70;;;;;;;-144.73;100.00;86607.40;110057;1265;22113;-54
2023/11/23 23:10:16;;;;;;;18.20;9.80;;;;;;;-144.73;100.00;86634.29;110048;1265;22351;-55
2023/11/23 23:13:07;;;;;;;14.30;8.40;;;;;;;-144.73;100.00;86608.97;110061;1260;22790;-56
2023/11/23 23:15:53;;;;;;;14.60;8.80;;;;;;;-144.73;100.00;86612.54;110079;1265;22370;-54
2023/11/23 23:18:41;;;;;;;15.20;8.10;;;;;;;-144.73;100.00;86629.54;110057;1263;23033;-54
2023/11/23 23:21:30;;;;;;;15.70;9.20;;;;;;;-144.73;100.00;86617.67;110136;1265;23012;-55
2023/11/23 23:24:17;;;;;;;15.00;8.50;;;;;;;-144.73;100.00;86614.52;110087;1263;22218;-54
2023/11/23 23:27:04;;;;;;;15.80;9.20;;;;;;;-144.73;100.00;86600.67;110081;1264;22899;-56
2023/11/23 23:29:52;;;;;;;17.00;9.20;;;;;;;-144.73;100.00;86620.05;110055;1266;22212;-54
2023/11/23 23:32:39;;;;;;;15.60;9.60;;;;;;;-144.73;100.00;86597.11;110042;1259;22370;-55
2023/11/23 23:35:25;;;;;;;15.90;9.70;;;;;;;-144.73;100.00;86636.27;110035;1264;22351;-54
2023/11/23 23:38:12;;;;;;;15.40;8.80;;;;;;;-144.73;100.00;86608.58;110078;1259;22221;-54
2023/11/23 23:40:58;;;;;;;17.90;9.80;;;;;;;-144.73;100.00;86618.46;110084;1262;22210;-53
2023/11/23 23:43:45;;;;;;;19.20;10.70;;;;;;;-144.73;100.00;86630.33;110059;1265;22370;-56
2023/11/23 23:46:31;;;;;;;17.00;9.70;;;;;;;-144.73;100.00;86597.50;109997;1270;22326;-55
2023/11/23 23:49:18;;;;;;;17.70;10.90;;;;;;;-144.73;100.00;86595.53;109993;1268;22333;-55
2023/11/23 23:52:04;;;;;;;15.90;9.50;;;;;;;-144.73;100.00;86600.66;110032;1265;22275;-56
2023/11/23 23:54:50;;;;;;;16.60;8.40;;;;;;;-144.73;100.00;86616.48;110024;1266;23068;-54
2023/11/23 23:57:36;;;;;;;16.60;9.30;;;;;;;-144.73;100.00;86605.02;110066;1265;22968;-54
